Time;durP1;ratioP1;P1;durP2;ratioP2;P2;SDS_P1;SDS_P2;PMS_P1;PMS_P2;Temp;Humidity;BMP_temperature;BMP_pressure;BME280_temperature;BME280_humidity;BME280_pressure;Samples;Min_cycle;Max_cycle;Signal;HPM_P1;HPM_P2
2022/06/01 00:01:07;;;;;;;26.33;12.80;;;;;;;19.35;67.71;101201.70;1663428;86;25786;-55
2022/06/01 00:03:39;;;;;;;28.40;12.85;;;;;;;19.33;67.82;101195.05;1673233;85;26856;-54
2022/06/01 00:06:07;;;;;;;25.68;11.90;;;;;;;19.33;67.85;101191.48;1671612;85;25812;-52
2022/06/01 00:08:34;;;;;;;24.85;10.58;;;;;;;19.28;68.25;101196.13;1671594;85;27531;-55
2022/06/01 00:11:02;;;;;;;21.25;10.30;;;;;;;19.21;69.13;101189.18;1671639;85;26118;-55
2022/06/01 00:13:30;;;;;;;26.48;9.55;;;;;;;19.12;68.58;101188.91;1671688;85;25915;-54
2022/06/01 00:15:57;;;;;;;25.43;10.90;;;;;;;19.06;68.98;101187.77;1671956;85;25852;-55
2022/06/01 00:18:25;;;;;;;20.75;9.95;;;;;;;19.02;68.80;101191.90;1671776;85;25745;-55
2022/06/01 00:20:53;;;;;;;26.35;10.40;;;;;;;18.98;68.76;101196.53;1672000;85;27401;-53
2022/06/01 00:23:21;;;;;;;20.52;9.48;;;;;;;18.96;69.05;101195.86;1671600;85;25727;-55
2022/06/01 00:25:48;;;;;;;20.02;9.43;;;;;;;18.93;68.92;101202.00;1672073;85;25748;-53
2022/06/01 00:28:15;;;;;;;16.32;7.35;;;;;;;18.89;69.20;101199.29;1678954;84;25973;-55
2022/06/01 00:30:42;;;;;;;21.62;8.40;;;;;;;18.84;69.49;101203.58;1691432;84;25777;-53
2022/06/01 00:33:10;;;;;;;17.12;7.75;;;;;;;18.75;70.06;101195.95;1689526;84;27668;-54
2022/06/01 00:35:37;;;;;;;19.90;7.72;;;;;;;18.67;69.94;101197.37;1690928;84;26111;-54
2022/06/01 00:38:05;;;;;;;19.15;7.42;;;;;;;18.62;69.70;101197.91;1693586;84;25816;-54
2022/06/01 00:40:32;;;;;;;15.83;6.55;;;;;;;18.62;69.64;101201.99;1691782;84;25955;-55
2022/06/01 00:43:04;;;;;;;17.17;6.67;;;;;;;18.61;69.67;101195.71;1702649;84;25735;-54
2022/06/01 00:45:31;;;;;;;13.28;7.17;;;;;;;18.61;69.63;101193.48;1679643;84;27665;-54
2022/06/01 00:47:58;;;;;;;19.00;7.67;;;;;;;18.59;69.42;101190.11;1691715;84;25801;-53
2022/06/01 00:50:31;;;;;;;16.32;6.78;;;;;;;18.58;70.01;101193.33;1723430;82;25772;-54
2022/06/01 00:53:03;;;;;;;15.80;7.50;;;;;;;18.44;70.45;101196.30;1690781;84;25956;-54
2022/06/01 00:55:34;;;;;;;20.02;7.72;;;;;;;18.35;69.89;101210.98;1734709;82;25989;-51
2022/06/01 00:58:09;;;;;;;12.55;6.90;;;;;;;18.33;69.98;101206.74;1657443;86;29666;-51
2022/06/01 01:00:40;;;;;;;17.67;7.25;;;;;;;18.36;70.07;101205.88;1726710;82;26321;-54
2022/06/01 01:03:10;;;;;;;13.62;6.17;;;;;;;18.35;70.03;101204.17;1657726;85;25773;-55
2022/06/01 01:05:43;;;;;;;11.53;5.75;;;;;;;18.38;70.01;101205.19;1723481;82;25808;-54
2022/06/01 01:08:10;;;;;;;13.00;6.22;;;;;;;18.38;70.24;101205.69;1691655;84;25788;-54
2022/06/01 01:10:36;;;;;;;19.73;7.87;;;;;;;18.39;69.98;101203.30;1733251;82;27459;-54
2022/06/01 01:13:08;;;;;;;15.88;6.62;;;;;;;18.36;69.64;101203.15;1657293;85;25815;-53
2022/06/01 01:15:40;;;;;;;15.60;6.50;;;;;;;18.23;69.45;101202.87;1725164;82;25833;-54
2022/06/01 01:18:11;;;;;;;18.95;7.80;;;;;;;18.11;69.88;101201.89;1657523;85;25789;-54
2022/06/01 01:20:58;;;;;;;15.28;6.72;;;;;;;18.13;70.34;101195.77;1727943;81;25806;-53
2022/06/01 01:23:50;;;;;;;14.90;6.75;;;;;;;18.11;71.10;101188.78;1676324;84;27552;-54
2022/06/01 01:26:18;;;;;;;13.55;6.58;;;;;;;18.10;70.92;101187.94;1684666;84;25986;-55
2022/06/01 01:28:45;;;;;;;18.00;7.33;;;;;;;18.11;70.79;101185.56;1681153;84;25461;-54
2022/06/01 01:31:23;;;;;;;12.13;7.87;;;;;;;18.15;70.62;101190.14;1709512;83;26755;-55
2022/06/01 01:33:54;;;;;;;17.12;8.08;;;;;;;18.18;70.52;101191.16;1714432;83;25863;-54
2022/06/01 01:36:27;;;;;;;13.60;7.15;;;;;;;18.13;70.40;101186.23;1691596;84;27476;-54
2022/06/01 01:39:07;;;;;;;19.05;6.92;;;;;;;18.09;70.43;101190.85;1691506;84;25904;-55
2022/06/01 01:41:43;;;;;;;9.93;4.97;;;;;;;17.93;70.93;101186.27;1697774;84;25812;-54
2022/06/01 01:44:30;;;;;;;10.60;5.37;;;;;;;17.83;71.14;101196.00;1697880;84;26547;-55
2022/06/01 01:46:58;;;;;;;13.25;4.92;;;;;;;17.86;72.42;101194.80;1690427;83;25468;-55
2022/06/01 01:49:30;;;;;;;12.63;5.50;;;;;;;17.92;71.84;101194.09;1698009;84;27452;-54
2022/06/01 01:52:02;;;;;;;8.18;5.90;;;;;;;18.02;71.81;101198.86;1697423;84;25768;-54
2022/06/01 01:54:55;;;;;;;12.98;6.80;;;;;;;18.12;71.57;101194.06;1698092;84;25784;-54
2022/06/01 01:57:50;;;;;;;9.60;5.20;;;;;;;18.19;71.34;101189.27;1697868;83;25970;-55
2022/06/01 02:00:24;;;;;;;11.40;5.72;;;;;;;18.22;71.17;101192.48;1697726;84;25720;-54
2022/06/01 02:02:57;;;;;;;11.48;5.33;;;;;;;18.23;70.99;101191.46;1697734;84;27473;-54
2022/06/01 02:08:36;;;;;;;7.37;4.83;;;;;;;18.28;71.04;101195.02;1697758;83;25689;-54
2022/06/01 02:14:28;;;;;;;6.47;4.65;;;;;;;18.27;70.80;101190.59;1697798;84;25788;-53
2022/06/01 02:16:58;;;;;;;;;;;;;;;18.28;70.63;101190.94;1700531;84;27478;-55
2022/06/01 02:19:30;;;;;;;9.63;5.50;;;;;;;18.28;70.35;101190.44;1699321;83;25520;-55
2022/06/01 02:21:59;;;;;;;17.32;6.30;;;;;;;18.25;70.38;101189.91;1689829;84;25645;-55
2022/06/01 02:24:26;;;;;;;16.10;7.17;;;;;;;18.19;70.36;101196.94;1687561;84;25840;-54
2022/06/01 02:26:55;;;;;;;12.07;6.30;;;;;;;18.17;70.65;101192.17;1691233;84;25925;-54
2022/06/01 02:29:45;;;;;;;11.15;5.37;;;;;;;18.19;71.04;101194.72;1693180;83;27471;-53
2022/06/01 02:32:14;;;;;;;15.18;5.92;;;;;;;18.23;71.22;101193.34;1691999;84;25804;-54
2022/06/01 02:34:43;;;;;;;11.35;6.00;;;;;;;18.28;71.15;101193.66;1692109;84;25767;-53
2022/06/01 02:37:14;;;;;;;14.65;5.83;;;;;;;18.34;71.12;101195.66;1671861;84;25836;-53
2022/06/01 02:39:45;;;;;;;14.58;5.65;;;;;;;18.40;71.33;101202.28;1691364;84;25495;-55
2022/06/01 02:42:28;;;;;;;14.30;6.42;;;;;;;18.42;70.96;101205.69;1692474;84;27576;-52
2022/06/01 02:45:08;;;;;;;20.52;6.25;;;;;;;18.43;70.78;101210.94;1685869;84;25705;-55
2022/06/01 02:47:43;;;;;;;15.50;6.05;;;;;;;18.37;71.02;101213.02;1700542;84;26566;-54
2022/06/01 02:50:17;;;;;;;8.98;5.37;;;;;;;18.28;70.86;101214.08;1700172;84;27960;-54
2022/06/01 02:52:45;;;;;;;17.48;4.87;;;;;;;18.22;71.18;101225.16;1700220;84;25771;-54
2022/06/01 02:55:13;;;;;;;13.22;5.45;;;;;;;18.21;71.17;101222.63;1700373;84;28144;-52
2022/06/01 02:57:42;;;;;;;13.48;6.33;;;;;;;18.26;71.53;101230.61;1700535;84;25724;-54
2022/06/01 03:00:17;;;;;;;12.10;5.70;;;;;;;18.28;71.21;101229.06;1700163;83;25757;-54
2022/06/01 03:02:51;;;;;;;15.15;6.17;;;;;;;18.38;71.24;101232.92;1700522;83;26008;-55
2022/06/01 03:05:22;;;;;;;9.30;5.58;;;;;;;18.43;71.14;101227.28;1707529;83;25767;-55
2022/06/01 03:07:50;;;;;;;9.90;5.97;;;;;;;18.50;71.11;101223.87;1700450;84;27178;-55
2022/06/01 03:10:18;;;;;;;11.00;5.80;;;;;;;18.58;70.95;101232.00;1700125;84;25752;-55
2022/06/01 03:12:45;;;;;;;16.00;5.53;;;;;;;18.64;70.69;101225.00;1700461;83;25626;-55
2022/06/01 03:15:16;;;;;;;13.60;4.78;;;;;;;18.74;70.54;101229.68;1700150;84;26460;-55
2022/06/01 03:17:44;;;;;;;10.30;5.20;;;;;;;18.83;70.46;101231.86;1700395;83;25755;-54
2022/06/01 03:20:15;;;;;;;9.53;4.80;;;;;;;18.89;70.25;101237.95;1700179;83;27683;-53
2022/06/01 03:22:43;;;;;;;9.93;5.83;;;;;;;18.94;69.94;101239.67;1700373;84;25776;-54
2022/06/01 03:25:15;;;;;;;13.15;5.03;;;;;;;19.01;69.93;101250.18;1700172;83;25761;-55
2022/06/01 03:27:43;;;;;;;11.35;5.67;;;;;;;19.08;70.05;101246.23;1700599;84;26379;-54
2022/06/01 03:30:14;;;;;;;9.83;5.12;;;;;;;19.14;69.84;101243.30;1704225;84;26121;-55
2022/06/01 03:32:41;;;;;;;13.38;5.40;;;;;;;19.21;69.55;101245.62;1704467;84;28442;-55
2022/06/01 03:35:08;;;;;;;11.65;5.08;;;;;;;19.28;69.45;101242.49;1704236;84;25732;-55
2022/06/01 03:37:35;;;;;;;15.23;7.25;;;;;;;19.35;69.23;101249.44;1706386;83;25799;-55
2022/06/01 03:40:04;;;;;;;13.08;5.72;;;;;;;19.43;69.12;101249.87;1704193;84;26616;-55
2022/06/01 03:42:31;;;;;;;22.55;5.80;;;;;;;19.47;68.96;101252.58;1704229;84;25706;-55
2022/06/01 03:47:45;;;;;;;17.67;6.45;;;;;;;19.53;68.61;101243.64;1700142;84;25780;-54
2022/06/01 03:50:13;;;;;;;11.83;4.95;;;;;;;19.56;68.34;101243.29;1700324;84;25789;-55
2022/06/01 03:52:40;;;;;;;14.80;5.33;;;;;;;19.58;68.06;101237.64;1700226;84;25746;-54
2022/06/01 03:55:08;;;;;;;14.50;5.33;;;;;;;19.53;67.73;101238.19;1700160;84;25768;-52
2022/06/01 03:57:36;;;;;;;10.13;5.00;;;;;;;19.48;67.69;101235.17;1700611;84;27379;-56
2022/06/01 04:00:06;;;;;;;8.88;5.45;;;;;;;19.47;67.82;101237.04;1700174;83;25660;-55
2022/06/01 04:02:36;;;;;;;8.93;5.72;;;;;;;19.49;67.94;101236.34;1699611;84;25740;-55
2022/06/01 04:05:05;;;;;;;10.13;5.20;;;;;;;19.58;67.92;101228.95;1700299;84;25826;-55
2022/06/01 04:07:32;;;;;;;17.62;5.42;;;;;;;19.66;67.80;101235.70;1700133;84;25730;-55
2022/06/01 04:09:59;;;;;;;11.05;5.75;;;;;;;19.71;67.56;101238.70;1700151;84;27466;-56
2022/06/01 04:12:26;;;;;;;18.77;5.75;;;;;;;19.76;67.41;101239.52;1699976;84;25823;-56
2022/06/01 04:14:52;;;;;;;19.87;5.50;;;;;;;19.86;67.41;101237.40;1700003;84;25731;-55
2022/06/01 04:17:19;;;;;;;18.12;5.83;;;;;;;19.96;67.25;101234.38;1700615;83;25743;-54
2022/06/01 04:19:46;;;;;;;19.27;6.08;;;;;;;20.04;67.23;101235.36;1700047;84;25760;-55
2022/06/01 04:22:15;;;;;;;16.80;6.30;;;;;;;20.12;67.21;101236.63;1700163;84;27476;-55
2022/06/01 04:24:42;;;;;;;16.07;5.47;;;;;;;20.18;67.26;101232.59;1700049;83;25816;-55
2022/06/01 04:27:10;;;;;;;11.45;6.55;;;;;;;20.27;67.28;101230.63;1700102;84;25780;-56
2022/06/01 04:29:39;;;;;;;29.63;6.00;;;;;;;20.29;66.83;101227.20;1703428;84;26475;-54
2022/06/01 04:32:12;;;;;;;9.00;5.70;;;;;;;20.26;66.58;101230.83;1704264;84;25775;-55
2022/06/01 04:34:39;;;;;;;11.78;5.90;;;;;;;20.25;66.77;101225.87;1703480;84;27483;-54
2022/06/01 04:37:06;;;;;;;14.47;5.53;;;;;;;20.17;66.91;101220.50;1704157;84;26628;-55
2022/06/01 04:39:33;;;;;;;12.93;6.37;;;;;;;20.11;67.25;101226.20;1704580;84;25689;-55
2022/06/01 04:42:00;;;;;;;14.83;5.90;;;;;;;20.07;67.58;101218.57;1704188;84;25797;-55
2022/06/01 04:44:27;;;;;;;14.87;5.92;;;;;;;20.05;67.44;101215.17;1703228;84;27215;-55
2022/06/01 04:46:54;;;;;;;13.20;6.35;;;;;;;20.05;67.37;101214.67;1695546;84;27346;-55
2022/06/01 04:49:21;;;;;;;10.82;5.72;;;;;;;20.11;67.49;101219.38;1704368;84;25870;-54
2022/06/01 04:51:48;;;;;;;10.68;6.60;;;;;;;20.19;67.57;101217.08;1704210;84;25797;-54
2022/06/01 04:54:15;;;;;;;15.10;6.25;;;;;;;20.29;67.49;101219.50;1704653;84;25960;-55
2022/06/01 04:56:42;;;;;;;12.30;5.90;;;;;;;20.37;67.13;101223.50;1704320;84;25717;-55
2022/06/01 04:59:09;;;;;;;13.15;5.85;;;;;;;20.46;66.96;101226.45;1704203;84;29618;-54
2022/06/01 05:01:36;;;;;;;7.53;5.58;;;;;;;20.51;66.51;101238.71;1704213;84;25844;-55
2022/06/01 05:04:03;;;;;;;14.78;6.35;;;;;;;20.48;66.16;101242.68;1704292;84;25660;-55
2022/06/01 05:06:29;;;;;;;11.88;5.75;;;;;;;20.48;66.15;101238.58;1704400;84;25777;-55
2022/06/01 05:08:56;;;;;;;11.28;6.00;;;;;;;20.51;66.13;101239.55;1704371;84;26646;-54
2022/06/01 05:11:23;;;;;;;15.35;6.30;;;;;;;20.51;66.10;101245.02;1704366;84;27474;-55
2022/06/01 05:13:49;;;;;;;17.40;5.70;;;;;;;20.51;66.06;101240.91;1704158;84;25807;-55
2022/06/01 05:16:17;;;;;;;15.13;5.90;;;;;;;20.57;66.02;101243.41;1704189;84;25712;-55
2022/06/01 05:18:44;;;;;;;19.48;6.25;;;;;;;20.59;66.03;101247.63;1704313;84;25732;-55
2022/06/01 05:21:12;;;;;;;9.28;5.47;;;;;;;20.64;65.96;101243.83;1704475;84;25821;-53
2022/06/01 05:23:39;;;;;;;8.53;5.58;;;;;;;20.63;65.71;101242.12;1704248;84;27540;-54
2022/06/01 05:26:06;;;;;;;6.87;5.45;;;;;;;20.62;65.53;101238.20;1704381;84;25942;-55
2022/06/01 05:28:34;;;;;;;8.83;5.25;;;;;;;20.66;65.68;101231.33;1704307;84;25731;-55
2022/06/01 05:31:09;;;;;;;15.95;6.40;;;;;;;20.71;65.71;101239.78;1704609;84;26532;-55
2022/06/01 05:33:38;;;;;;;11.30;5.30;;;;;;;20.76;65.66;101237.88;1701313;84;25992;-54
2022/06/01 05:36:06;;;;;;;10.82;5.47;;;;;;;20.79;65.53;101236.13;1688540;85;28153;-55
2022/06/01 05:38:33;;;;;;;13.35;5.33;;;;;;;20.79;65.47;101231.53;1688330;84;26127;-54
2022/06/01 05:41:01;;;;;;;12.73;5.30;;;;;;;20.82;65.48;101230.79;1688867;85;25827;-55
2022/06/01 05:43:28;;;;;;;9.85;5.37;;;;;;;20.85;65.65;101227.68;1688500;85;25893;-55
2022/06/01 05:45:56;;;;;;;13.22;5.83;;;;;;;20.89;65.76;101228.47;1693410;83;25740;-54
2022/06/01 05:48:23;;;;;;;12.07;5.60;;;;;;;20.92;65.56;101226.72;1694815;82;27470;-54
2022/06/01 05:50:50;;;;;;;23.45;5.30;;;;;;;20.98;65.38;101225.08;1691040;84;25855;-55
2022/06/01 05:53:17;;;;;;;13.22;5.70;;;;;;;21.05;65.31;101222.41;1691588;84;25837;-55
2022/06/01 05:55:44;;;;;;;14.45;5.53;;;;;;;21.11;65.20;101223.02;1694334;84;25869;-55
2022/06/01 05:58:22;;;;;;;10.82;5.97;;;;;;;21.15;65.07;101219.38;1689091;84;25761;-54
2022/06/01 06:00:51;;;;;;;23.52;5.60;;;;;;;21.20;65.01;101212.25;1698135;83;27804;-56
2022/06/01 06:03:20;;;;;;;12.68;5.05;;;;;;;21.28;64.94;101209.08;1691470;84;25639;-55
2022/06/01 06:08:32;;;;;;;8.80;4.55;;;;;;;21.37;64.59;101212.83;1691536;84;28020;-55
2022/06/01 06:10:59;;;;;;;7.70;4.53;;;;;;;21.43;64.43;101208.47;1692512;84;25751;-55
2022/06/01 06:13:25;;;;;;;14.90;4.50;;;;;;;21.47;64.13;101205.64;1689568;84;27511;-55
2022/06/01 06:15:52;;;;;;;17.27;5.33;;;;;;;21.51;63.65;101211.59;1691948;84;25724;-55
2022/06/01 06:18:19;;;;;;;12.13;5.05;;;;;;;21.55;63.50;101215.10;1693777;83;25513;-54
2022/06/01 06:20:47;;;;;;;11.95;5.03;;;;;;;21.59;63.41;101211.48;1691503;84;25998;-55
2022/06/01 06:23:14;;;;;;;13.55;5.55;;;;;;;21.63;63.23;101207.81;1694184;84;25831;-55
2022/06/01 06:25:42;;;;;;;17.48;5.42;;;;;;;21.67;63.09;101210.46;1690033;84;27496;-55
2022/06/01 06:28:10;;;;;;;17.50;5.47;;;;;;;21.70;63.15;101212.27;1691395;84;25847;-54
2022/06/01 06:30:38;;;;;;;13.05;6.15;;;;;;;21.72;63.19;101206.62;1693745;83;25800;-55
2022/06/01 06:33:06;;;;;;;10.25;5.50;;;;;;;21.71;63.07;101209.03;1691801;84;25901;-55
2022/06/01 06:35:34;;;;;;;12.65;4.97;;;;;;;21.72;63.16;101202.51;1699656;84;25818;-55
2022/06/01 06:38:03;;;;;;;12.45;5.70;;;;;;;21.72;63.01;101197.03;1697882;84;27485;-55
2022/06/01 06:40:29;;;;;;;23.18;6.12;;;;;;;21.75;62.86;101195.24;1697714;83;26330;-55
2022/06/01 06:42:56;;;;;;;12.78;6.62;;;;;;;21.80;62.78;101190.53;1697796;84;25463;-55
2022/06/01 06:45:24;;;;;;;13.25;6.60;;;;;;;21.84;62.67;101180.89;1693735;83;25800;-55
2022/06/01 06:47:51;;;;;;;10.75;6.42;;;;;;;21.91;62.74;101185.05;1697843;84;25791;-55
2022/06/01 06:50:21;;;;;;;7.85;4.75;;;;;;;21.94;62.44;101181.88;1697671;84;29645;-55
2022/06/01 06:52:48;;;;;;;43.48;29.27;;;;;;;21.99;62.21;101176.66;1697934;84;25784;-56
2022/06/01 06:55:15;;;;;;;13.10;6.50;;;;;;;22.04;62.14;101175.52;1697770;84;25658;-55
2022/06/01 06:57:43;;;;;;;19.87;6.08;;;;;;;22.07;62.10;101170.15;1697713;84;26025;-55
2022/06/01 07:00:12;;;;;;;10.98;5.62;;;;;;;22.12;61.87;101170.41;1697781;83;25465;-55
2022/06/01 07:02:39;;;;;;;19.48;6.33;;;;;;;22.17;62.04;101168.75;1697982;84;27387;-56
2022/06/01 07:05:07;;;;;;;17.75;6.50;;;;;;;22.24;62.04;101167.92;1697678;84;25836;-55
2022/06/01 07:07:34;;;;;;;15.35;5.55;;;;;;;22.34;61.97;101173.88;1697980;83;25743;-55
2022/06/01 07:10:01;;;;;;;22.10;7.90;;;;;;;22.44;62.16;101166.14;1697844;84;25697;-55
2022/06/01 07:12:28;;;;;;;21.20;5.72;;;;;;;22.58;62.14;101164.80;1697802;84;25855;-55
2022/06/01 07:14:55;;;;;;;24.25;6.47;;;;;;;22.70;61.87;101160.41;1697533;84;27605;-55
2022/06/01 07:17:22;;;;;;;15.55;6.62;;;;;;;22.81;61.45;101163.06;1697812;84;26084;-55
2022/06/01 07:19:49;;;;;;;18.92;5.87;;;;;;;22.88;61.15;101163.91;1697595;84;25483;-54
2022/06/01 07:22:16;;;;;;;8.15;5.25;;;;;;;22.97;60.53;101159.92;1676123;84;25742;-54
2022/06/01 07:24:43;;;;;;;12.45;5.08;;;;;;;23.04;59.19;101160.47;1697620;84;25681;-55
2022/06/01 07:27:10;;;;;;;21.85;5.45;;;;;;;23.05;59.50;101159.39;1697608;84;27590;-55
2022/06/01 07:29:37;;;;;;;14.35;5.85;;;;;;;23.13;59.69;101157.81;1697871;83;25779;-55
2022/06/01 07:32:05;;;;;;;20.15;6.03;;;;;;;23.21;59.44;101159.55;1697740;83;25671;-55
2022/06/01 07:34:33;;;;;;;14.90;5.25;;;;;;;23.31;58.97;101161.89;1697824;84;25985;-55
2022/06/01 07:43:05;;;;;;;20.08;5.28;;;;;;;23.41;59.10;101161.77;1698048;84;26097;-55
2022/06/01 07:44:59;;;;;;;13.93;4.70;;;;;;;23.67;57.43;101155.06;1697690;83;25928;-55
2022/06/01 07:47:27;;;;;;;24.87;5.47;;;;;;;23.74;56.82;101147.67;1697627;82;26776;-56
2022/06/01 07:49:54;;;;;;;14.23;4.97;;;;;;;23.79;57.08;101143.73;1697604;84;25716;-56
2022/06/01 07:52:23;;;;;;;10.55;4.67;;;;;;;23.88;56.52;101140.24;1713096;83;27509;-56
2022/06/01 07:54:54;;;;;;;14.75;4.47;;;;;;;23.95;57.00;101137.48;1697891;84;25479;-56
2022/06/01 07:57:18;;;;;;;28.42;5.35;;;;;;;24.02;56.84;101132.29;1697890;83;26462;-56
2022/06/01 07:59:44;;;;;;;23.35;5.37;;;;;;;24.12;56.36;101133.19;1697734;84;26737;-56
2022/06/01 08:02:11;;;;;;;6.80;4.50;;;;;;;24.24;56.40;101133.38;1703942;82;26008;-56
2022/06/01 08:04:39;;;;;;;12.20;4.47;;;;;;;24.30;55.62;101125.62;1723910;82;27654;-56
2022/06/01 08:07:06;;;;;;;13.35;5.22;;;;;;;24.35;55.75;101127.16;1704493;82;25809;-56
2022/06/01 08:09:33;;;;;;;14.13;4.28;;;;;;;24.47;55.16;101131.45;1697940;83;25740;-56
2022/06/01 08:14:45;;;;;;;22.10;4.83;;;;;;;24.73;54.30;101120.52;1697718;84;25725;-56
2022/06/01 08:17:11;;;;;;;21.48;4.80;;;;;;;24.87;53.93;101125.40;1697885;84;27425;-56
2022/06/01 08:19:38;;;;;;;12.20;4.85;;;;;;;25.00;53.94;101126.14;1697478;83;25791;-56
2022/06/01 08:22:06;;;;;;;15.83;4.85;;;;;;;25.18;54.51;101130.56;1697631;83;25704;-56
2022/06/01 08:24:33;;;;;;;17.85;4.47;;;;;;;25.32;52.18;101130.73;1697655;83;25811;-56
2022/06/01 08:27:00;;;;;;;16.05;4.80;;;;;;;25.44;52.49;101132.24;1697727;83;25756;-56
2022/06/01 08:29:27;;;;;;;13.05;3.90;;;;;;;25.60;52.38;101132.20;1697612;83;27486;-56
2022/06/01 08:31:54;;;;;;;8.38;3.80;;;;;;;25.76;51.58;101130.77;1697464;84;25907;-56
2022/06/01 08:34:21;;;;;;;12.28;3.85;;;;;;;25.92;51.49;101135.66;1697522;84;25439;-55
2022/06/01 08:36:48;;;;;;;8.68;4.17;;;;;;;26.08;49.71;101129.20;1697970;84;26090;-55
2022/06/01 08:39:15;;;;;;;10.43;3.42;;;;;;;26.20;49.18;101131.53;1697755;83;25749;-55
2022/06/01 08:41:42;;;;;;;13.68;3.72;;;;;;;26.33;47.29;101133.27;1697942;83;28337;-56
2022/06/01 08:44:37;;;;;;;14.80;3.80;;;;;;;26.46;47.02;101136.38;1697512;84;25986;-55
2022/06/01 08:47:18;;;;;;;12.45;3.58;;;;;;;26.60;47.62;101127.90;1697864;83;25676;-55
2022/06/01 08:49:45;;;;;;;16.00;3.17;;;;;;;26.83;47.82;101130.78;1681289;84;26587;-56
2022/06/01 08:52:12;;;;;;;11.65;3.70;;;;;;;27.13;44.93;101132.61;1730493;82;25808;-56
2022/06/01 08:54:39;;;;;;;17.35;3.27;;;;;;;27.38;44.67;101126.04;1739547;82;28502;-56
2022/06/01 08:57:20;;;;;;;13.62;3.70;;;;;;;27.67;43.72;101125.32;1731558;82;25746;-56
2022/06/01 09:00:15;;;;;;;23.35;3.75;;;;;;;27.90;43.86;101121.67;1728624;82;25730;-56
2022/06/01 09:03:12;;;;;;;9.13;3.00;;;;;;;28.20;42.59;101117.88;1730700;82;25817;-56
2022/06/01 09:05:47;;;;;;;13.20;3.22;;;;;;;28.45;41.50;101115.33;1731405;82;25757;-56
2022/06/01 09:08:28;;;;;;;10.03;2.45;;;;;;;28.53;41.28;101111.59;1717378;83;27509;-56
2022/06/01 09:11:15;;;;;;;6.70;2.87;;;;;;;28.73;41.82;101102.84;1718572;83;25754;-56
2022/06/01 09:14:10;;;;;;;14.43;3.15;;;;;;;28.92;41.74;101104.55;1698582;83;25776;-55
2022/06/01 09:16:41;;;;;;;11.10;2.67;;;;;;;29.24;40.94;101102.55;1721263;83;25934;-56
2022/06/01 09:19:16;;;;;;;13.35;3.35;;;;;;;29.67;40.23;101098.23;1721123;83;25726;-57
2022/06/01 09:24:41;;;;;;;4.95;2.65;;;;;;;29.99;38.26;101098.92;1720929;83;25870;-56
2022/06/01 09:27:13;;;;;;;14.60;2.62;;;;;;;30.27;38.38;101094.25;1721039;83;25752;-56
2022/06/01 09:29:49;;;;;;;12.55;2.65;;;;;;;30.63;37.72;101096.56;1700371;83;29236;-56
2022/06/01 09:32:33;;;;;;;9.03;2.62;;;;;;;31.01;37.74;101104.39;1695623;83;25452;-56
2022/06/01 09:35:05;;;;;;;22.27;2.92;;;;;;;31.36;36.17;101105.77;1695879;84;28549;-55
2022/06/01 09:37:41;;;;;;;9.30;2.40;;;;;;;31.77;36.17;101100.48;1696111;84;25831;-56
2022/06/01 09:40:28;;;;;;;6.62;2.55;;;;;;;32.23;35.20;101097.61;1695329;83;25695;-56
2022/06/01 09:43:00;;;;;;;15.58;2.40;;;;;;;32.68;34.85;101094.58;1690377;84;25815;-55
2022/06/01 09:45:40;;;;;;;15.50;2.65;;;;;;;32.79;32.42;101091.30;1696194;83;27254;-56
2022/06/01 09:48:27;;;;;;;7.90;2.85;;;;;;;32.40;33.02;101089.00;1720437;81;27560;-56
2022/06/01 09:51:21;;;;;;;6.53;2.52;;;;;;;32.01;34.65;101091.66;1731854;82;26134;-56
2022/06/01 09:54:21;;;;;;;6.62;2.52;;;;;;;31.61;34.79;101091.73;1720908;83;25787;-56
2022/06/01 09:56:49;;;;;;;9.68;2.62;;;;;;;31.14;34.63;101094.25;1721200;83;26775;-56
2022/06/01 10:08:16;;;;;;;8.48;2.35;;;;;;;30.11;37.14;101094.63;1718094;83;25862;-56
2022/06/01 10:11:03;;;;;;;18.77;3.17;;;;;;;30.10;37.22;101092.94;1681895;83;25813;-56
2022/06/01 10:13:37;;;;;;;7.72;2.25;;;;;;;30.11;37.43;101091.84;1697367;83;25857;-55
2022/06/01 10:16:37;;;;;;;9.05;2.95;;;;;;;30.04;37.13;101086.49;1688637;85;27469;-56
2022/06/01 10:19:11;;;;;;;14.80;3.47;;;;;;;30.02;37.61;101087.86;1688222;84;25767;-56
2022/06/01 10:21:50;;;;;;;17.80;3.17;;;;;;;29.91;37.54;101078.55;1688344;85;25558;-56
2022/06/01 10:24:26;;;;;;;17.45;3.45;;;;;;;29.83;38.00;101086.77;1685832;85;25775;-56
2022/06/01 10:26:58;;;;;;;6.28;2.60;;;;;;;29.73;37.86;101083.86;1687343;85;25720;-56
2022/06/01 10:29:35;;;;;;;9.98;3.40;;;;;;;29.39;37.70;101080.66;1693681;84;28539;-56
2022/06/01 10:32:16;;;;;;;7.17;3.00;;;;;;;29.27;38.45;101073.78;1694591;83;27236;-56
2022/06/01 10:34:48;;;;;;;9.33;2.67;;;;;;;29.29;38.78;101062.47;1694396;83;25772;-56
2022/06/01 10:37:43;;;;;;;11.78;3.72;;;;;;;29.16;39.05;101057.57;1695671;83;25828;-55
2022/06/01 10:40:19;;;;;;;13.35;3.37;;;;;;;29.09;40.08;101060.25;1695161;83;25543;-56
2022/06/01 10:43:18;;;;;;;8.35;2.75;;;;;;;29.03;39.90;101056.00;1695619;84;27510;-55
2022/06/01 10:46:00;;;;;;;10.35;2.83;;;;;;;29.03;40.04;101054.61;1695614;83;25703;-57
2022/06/01 10:48:40;;;;;;;12.98;2.90;;;;;;;28.99;39.95;101059.00;1694779;83;25859;-56
2022/06/01 10:51:27;;;;;;;21.40;3.60;;;;;;;28.86;39.98;101070.39;1685795;84;26030;-56
2022/06/01 10:54:03;;;;;;;108.80;11.38;;;;;;;28.69;39.98;101073.97;1691714;84;25921;-55
2022/06/01 10:56:30;;;;;;;29.52;5.37;;;;;;;28.55;44.83;101069.30;1699429;83;27314;-55
2022/06/01 10:59:02;;;;;;;34.53;5.87;;;;;;;28.26;47.97;101070.71;1698056;84;25739;-60
2022/06/01 11:01:36;;;;;;;15.70;4.67;;;;;;;27.77;49.98;101066.95;1697645;83;25699;-56
2022/06/01 11:04:32;;;;;;;13.60;3.87;;;;;;;27.37;51.84;101076.02;1697672;83;25789;-56
2022/06/01 11:07:22;;;;;;;20.40;5.78;;;;;;;27.17;51.32;101077.22;1697710;83;25967;-56
2022/06/01 11:10:29;;;;;;;25.70;5.55;;;;;;;27.24;53.30;101087.30;1697772;83;28093;-56
2022/06/01 11:13:22;;;;;;;9.65;3.55;;;;;;;27.20;53.89;101088.88;1697737;83;25817;-55
2022/06/01 11:16:22;;;;;;;10.50;2.83;;;;;;;28.22;53.33;101073.70;1642206;84;25781;-56
2022/06/01 11:19:06;;;;;;;12.20;4.55;;;;;;;28.70;51.29;101071.53;1697569;84;25802;-55
2022/06/01 11:22:06;;;;;;;7.00;2.60;;;;;;;30.08;49.32;101069.63;1697570;84;43545;-55
2022/06/01 11:25:03;;;;;;;12.53;2.52;;;;;;;31.27;46.00;101072.11;1697648;84;27509;-55
2022/06/01 11:27:43;;;;;;;7.60;2.15;;;;;;;30.76;44.81;101077.53;1697613;83;25744;-56
2022/06/01 11:30:27;;;;;;;11.48;2.10;;;;;;;30.06;44.30;101075.98;1669576;85;25700;-55
2022/06/01 11:33:10;;;;;;;;;;;;;;;30.00;45.86;101065.08;1672045;85;25786;-55
2022/06/01 11:35:54;;;;;;;8.13;2.30;;;;;;;29.85;45.54;101056.86;1671844;84;32528;-55
2022/06/01 11:38:29;;;;;;;18.70;2.70;;;;;;;29.54;45.63;101057.02;1663993;86;27518;-55
2022/06/01 11:41:13;;;;;;;7.47;2.72;;;;;;;29.16;46.85;101057.57;1663439;85;25736;-55
2022/06/01 11:43:52;;;;;;;9.73;2.40;;;;;;;29.09;48.19;101049.17;1652846;86;25909;-56
2022/06/01 11:46:37;;;;;;;10.55;2.60;;;;;;;28.92;48.83;101038.92;1693362;84;25781;-56
2022/06/01 11:49:27;;;;;;;6.60;2.60;;;;;;;29.09;48.23;101034.76;1704573;84;25628;-56
2022/06/01 11:51:55;;;;;;;15.53;2.72;;;;;;;29.43;47.30;101029.72;1661602;85;27503;-56
2022/06/01 11:54:35;;;;;;;7.60;2.70;;;;;;;29.62;46.57;101021.39;1683196;85;26464;-56
2022/06/01 11:57:24;;;;;;;9.13;2.52;;;;;;;29.74;46.37;101019.00;1683232;85;25790;-56
2022/06/01 12:00:07;;;;;;;8.43;2.95;;;;;;;30.40;45.93;101025.83;1683362;84;25496;-56
2022/06/01 12:02:43;;;;;;;7.83;2.30;;;;;;;32.05;44.14;101028.77;1656669;85;25733;-56
2022/06/01 12:05:24;;;;;;;6.45;1.72;;;;;;;33.03;41.42;101038.62;1655619;86;27500;-56
2022/06/01 12:07:56;;;;;;;5.33;2.00;;;;;;;33.07;39.48;101049.47;1687685;84;25741;-56
2022/06/01 12:10:48;;;;;;;7.17;2.52;;;;;;;33.06;39.86;101058.12;1654479;85;25745;-56
2022/06/01 12:13:28;;;;;;;5.67;2.47;;;;;;;33.32;39.21;101060.30;1654873;86;25861;-56
2022/06/01 12:16:10;;;;;;;7.53;2.20;;;;;;;33.93;37.23;101068.20;1689883;84;26113;-56